Time;durP1;ratioP1;P1;durP2;ratioP2;P2;SDS_P1;SDS_P2;PMS_P1;PMS_P2;Temp;Humidity;BMP_temperature;BMP_pressure;BME280_temperature;BME280_humidity;BME280_pressure;Samples;Min_cycle;Max_cycle;Signal;HPM_P1;HPM_P2
2022/04/22 00:00:47;;;;;;;;;;;;;;;12.39;54.53418;101192.8;;;;-82
2022/04/22 00:05:45;;;;;;;;;;;;;;;12.33;54.63965;101186.7;;;;-82
2022/04/22 00:15:49;;;;;;;;;;;;;;;12.2;55.85352;101186.9;;;;-83
2022/04/22 00:20:45;;;;;;;;;;;;;;;12.16;55.91504;101190;;;;-84
2022/04/22 00:20:57;;;;;;;6.4;2.9;;;;;;;;;;;;;-84
2022/04/22 00:25:51;;;;;;;;;;;;;;;12.14;55.05176;101180.9;;;;-83
2022/04/22 00:30:50;;;;;;;;;;;;;;;12.1;55.33691;101178.2;;;;-82
2022/04/22 00:35:45;;;;;;;;;;;;;;;12.09;55.13477;101179.4;;;;-83
2022/04/22 00:40:46;;;;;;;;;;;;;;;12.05;55.83496;101179;;;;-83
2022/04/22 00:45:45;;;;;;;;;;;;;;;12.06;56.18262;101172.1;;;;-82
2022/04/22 00:50:47;;;;;;;;;;;;;;;12.07;56.08301;101175.4;;;;-81
2022/04/22 00:51:00;;;;;;;5.5;2.8;;;;;;;;;;;;;-81
2022/04/22 00:55:47;;;;;;;;;;;;;;;12.06;56.59668;101171.8;;;;-82
2022/04/22 01:00:46;;;;;;;;;;;;;;;12.08;56.6875;101165.3;;;;-83
2022/04/22 01:10:45;;;;;;;;;;;;;;;12.05;56.79688;101151.3;;;;-84
2022/04/22 01:15:47;;;;;;;;;;;;;;;12.01;57.10352;101149.4;;;;-84
2022/04/22 01:20:47;;;;;;;;;;;;;;;12;57.25879;101143.2;;;;-82
2022/04/22 01:20:57;;;;;;;4.8;2.3;;;;;;;;;;;;;-82
2022/04/22 01:25:45;;;;;;;;;;;;;;;11.97;57.21094;101145.7;;;;-80
2022/04/22 01:30:45;;;;;;;;;;;;;;;11.95;57.28711;101134.8;;;;-81
2022/04/22 01:35:52;;;;;;;;;;;;;;;11.94;57.65332;101134.5;;;;-84
2022/04/22 01:40:45;;;;;;;;;;;;;;;11.93;57.62988;101123.7;;;;-82
2022/04/22 01:45:45;;;;;;;;;;;;;;;11.93;57.70801;101114.5;;;;-83
2022/04/22 01:50:46;;;;;;;;;;;;;;;11.91;57.79395;101115.7;;;;-83
2022/04/22 01:50:59;;;;;;;4.9;2.7;;;;;;;;;;;;;-80
2022/04/22 01:55:46;;;;;;;;;;;;;;;11.87;57.63379;101119.8;;;;-84
2022/04/22 02:00:45;;;;;;;;;;;;;;;11.82;57.40332;101116.4;;;;-82
2022/04/22 02:05:46;;;;;;;;;;;;;;;11.75;57.49512;101124.3;;;;-84
2022/04/22 02:10:46;;;;;;;;;;;;;;;11.69;57.70898;101128.5;;;;-84
2022/04/22 02:15:56;;;;;;;;;;;;;;;11.61;57.83301;101117.6;;;;-83
2022/04/22 02:20:45;;;;;;;;;;;;;;;11.54;58.22559;101117.6;;;;-83
2022/04/22 02:20:57;;;;;;;9.2;3.3;;;;;;;;;;;;;-83
2022/04/22 02:25:46;;;;;;;;;;;;;;;11.47;58.29492;101119.1;;;;-80
2022/04/22 02:30:45;;;;;;;;;;;;;;;11.41;58.4209;101118.7;;;;-83
2022/04/22 02:35:50;;;;;;;;;;;;;;;11.35;58.60254;101118.4;;;;-83
2022/04/22 02:45:45;;;;;;;;;;;;;;;11.2;58.79395;101119.2;;;;-83
2022/04/22 02:50:45;;;;;;;;;;;;;;;11.16;59.0791;101117.4;;;;-82
2022/04/22 02:51:01;;;;;;;8.4;4.2;;;;;;;;;;;;;-82
2022/04/22 02:55:48;;;;;;;;;;;;;;;11.12;58.59375;101117.4;;;;-84
2022/04/22 03:00:45;;;;;;;;;;;;;;;11.08;58.99023;101110.7;;;;-84
2022/04/22 03:05:45;;;;;;;;;;;;;;;11.02;58.53613;101111.7;;;;-82
2022/04/22 03:10:48;;;;;;;;;;;;;;;10.97;58.32813;101108.9;;;;-83
2022/04/22 03:15:45;;;;;;;;;;;;;;;10.91;58.87695;101100.9;;;;-83
2022/04/22 03:20:45;;;;;;;;;;;;;;;10.87;59.0498;101106.3;;;;-82
2022/04/22 03:20:58;;;;;;;8.6;4.7;;;;;;;;;;;;;-81
2022/04/22 03:25:45;;;;;;;;;;;;;;;10.8;59.27441;101098.1;;;;-82
2022/04/22 03:30:45;;;;;;;;;;;;;;;10.78;59.13867;101099;;;;-81
2022/04/22 03:35:45;;;;;;;;;;;;;;;10.74;59.7002;101100.3;;;;-81
2022/04/22 03:40:45;;;;;;;;;;;;;;;10.72;59.94434;101091.9;;;;-81
2022/04/22 03:45:48;;;;;;;;;;;;;;;10.7;60.15234;101096.7;;;;-81
2022/04/22 03:50:45;;;;;;;;;;;;;;;10.66;59.89063;101087;;;;-83
2022/04/22 03:50:59;;;;;;;12.6;4.9;;;;;;;;;;;;;-82
2022/04/22 03:55:46;;;;;;;;;;;;;;;10.6;60.67383;101092.1;;;;-83
2022/04/22 04:00:48;;;;;;;;;;;;;;;10.56;60.93457;101095.9;;;;-83
2022/04/22 04:05:50;;;;;;;;;;;;;;;10.55;60.82227;101104.1;;;;-83
2022/04/22 04:25:45;;;;;;;;;;;;;;;10.41;61.78027;101100.7;;;;-82
2022/04/22 04:30:45;;;;;;;;;;;;;;;10.4;61.10254;101093;;;;-82
2022/04/22 04:35:46;;;;;;;;;;;;;;;10.38;60.99805;101092.1;;;;-82
2022/04/22 04:40:46;;;;;;;;;;;;;;;10.35;61.28223;101092;;;;-82
2022/04/22 04:45:45;;;;;;;;;;;;;;;10.33;61.10352;101085.5;;;;-82
2022/04/22 04:50:47;;;;;;;;;;;;;;;10.32;61.09082;101091;;;;-82
2022/04/22 04:51:00;;;;;;;14.3;6;;;;;;;;;;;;;-81
2022/04/22 04:55:45;;;;;;;;;;;;;;;10.32;62.05664;101093;;;;-83
2022/04/22 05:00:45;;;;;;;;;;;;;;;10.31;61.84473;101091.6;;;;-81
2022/04/22 05:05:52;;;;;;;;;;;;;;;10.35;61.16113;101093;;;;-82
2022/04/22 05:10:46;;;;;;;;;;;;;;;10.37;61.86328;101097.8;;;;-83
2022/04/22 05:15:46;;;;;;;;;;;;;;;10.39;62.43457;101100.6;;;;-84
2022/04/22 05:20:46;;;;;;;;;;;;;;;10.42;62.02637;101099.8;;;;-83
2022/04/22 05:21:00;;;;;;;14;7.2;;;;;;;;;;;;;-80
2022/04/22 05:25:45;;;;;;;;;;;;;;;10.42;61.88184;101102.3;;;;-84
2022/04/22 05:35:45;;;;;;;;;;;;;;;10.49;62.02539;101107;;;;-83
2022/04/22 05:40:47;;;;;;;;;;;;;;;10.51;62.10645;101103.2;;;;-85
2022/04/22 05:45:47;;;;;;;;;;;;;;;10.53;61.89844;101106.4;;;;-81
2022/04/22 05:50:45;;;;;;;;;;;;;;;10.8;61.12402;101100.7;;;;-83
2022/04/22 05:51:07;;;;;;;14.2;6.3;;;;;;;;;;;;;-80
2022/04/22 05:55:46;;;;;;;;;;;;;;;11.12;60.16504;101096.1;;;;-83
2022/04/22 06:00:47;;;;;;;;;;;;;;;11.45;59.18555;101097.8;;;;-83
2022/04/22 06:05:45;;;;;;;;;;;;;;;11.78;58.33594;101097.6;;;;-82
2022/04/22 06:10:46;;;;;;;;;;;;;;;12.14;58.00488;101090.6;;;;-82
2022/04/22 06:15:48;;;;;;;;;;;;;;;12.33;57.19043;101085.5;;;;-83
2022/04/22 06:20:54;;;;;;;;;;;;;;;12.48;57.52246;101093.1;;;;-83
2022/04/22 06:21:04;;;;;;;12.6;5.9;;;;;;;;;;;;;-83
2022/04/22 06:25:46;;;;;;;;;;;;;;;12.72;56.99609;101090.3;;;;-84
2022/04/22 06:30:46;;;;;;;;;;;;;;;12.94;56.20605;101090.8;;;;-77
2022/04/22 06:35:45;;;;;;;;;;;;;;;13.07;56.04297;101087.3;;;;-76
2022/04/22 06:45:51;;;;;;;;;;;;;;;13.53;54.95801;101080.4;;;;-78
2022/04/22 06:50:46;;;;;;;;;;;;;;;13.78;54.4834;101073.1;;;;-76
2022/04/22 06:51:06;;;;;;;12.2;5.2;;;;;;;;;;;;;-76
2022/04/22 06:55:45;;;;;;;;;;;;;;;14.05;53.98828;101075;;;;-77
2022/04/22 07:00:45;;;;;;;;;;;;;;;14.3;53.44531;101073.7;;;;-76
2022/04/22 07:05:46;;;;;;;;;;;;;;;14.52;53.14551;101073.5;;;;-75
2022/04/22 07:10:46;;;;;;;;;;;;;;;14.73;52.6416;101077.5;;;;-75
2022/04/22 07:15:47;;;;;;;;;;;;;;;14.96;52.27441;101069.6;;;;-77
2022/04/22 07:20:45;;;;;;;;;;;;;;;15.12;51.87695;101069.1;;;;-76
2022/04/22 07:21:04;;;;;;;10.3;4.9;;;;;;;;;;;;;-78
2022/04/22 07:25:48;;;;;;;;;;;;;;;15.28;51.71582;101065.7;;;;-78
2022/04/22 07:30:46;;;;;;;;;;;;;;;15.41;51.43555;101060.6;;;;-76
2022/04/22 07:35:45;;;;;;;;;;;;;;;15.6;51.04102;101053.4;;;;-77
2022/04/22 07:40:48;;;;;;;;;;;;;;;15.77;50.6543;101049.8;;;;-77
2022/04/22 07:50:50;;;;;;;;;;;;;;;16.3;49.92383;101050;;;;-76
2022/04/22 07:51:06;;;;;;;7.8;4;;;;;;;;;;;;;-76
2022/04/22 07:55:45;;;;;;;;;;;;;;;16.5;49.6748;101049.3;;;;-76
2022/04/22 08:00:45;;;;;;;;;;;;;;;16.67;49.33105;101040.8;;;;-76
2022/04/22 08:05:50;;;;;;;;;;;;;;;16.92;49.01953;101045.7;;;;-77
2022/04/22 08:10:47;;;;;;;;;;;;;;;17.14;48.68066;101044.6;;;;-77
2022/04/22 08:15:45;;;;;;;;;;;;;;;17.3;48.07422;101036.4;;;;-78
2022/04/22 08:20:45;;;;;;;;;;;;;;;17.46;48.02344;101049.6;;;;-76
2022/04/22 08:21:08;;;;;;;9.7;4.4;;;;;;;;;;;;;-78
2022/04/22 08:25:45;;;;;;;;;;;;;;;17.66;47.80664;101045.6;;;;-78
2022/04/22 08:30:45;;;;;;;;;;;;;;;17.92;47.58496;101049.2;;;;-78
2022/04/22 08:35:45;;;;;;;;;;;;;;;18.24;47.0625;101045.9;;;;-77
2022/04/22 08:40:46;;;;;;;;;;;;;;;18.52;46.73828;101048.6;;;;-76
2022/04/22 08:45:45;;;;;;;;;;;;;;;18.88;46.28711;101043.5;;;;-76
2022/04/22 08:50:45;;;;;;;;;;;;;;;19.09;45.89844;101028.8;;;;-76
2022/04/22 08:51:12;;;;;;;7.8;4;;;;;;;;;;;;;-76
2022/04/22 08:55:50;;;;;;;;;;;;;;;19.35;45.45801;101020.7;;;;-75
2022/04/22 09:00:46;;;;;;;;;;;;;;;19.65;45.20313;101032.1;;;;-84
2022/04/22 09:05:46;;;;;;;;;;;;;;;19.93;44.56934;101015.9;;;;-83
2022/04/22 09:10:45;;;;;;;;;;;;;;;20.19;44.17285;101013.7;;;;-83
2022/04/22 09:15:46;;;;;;;;;;;;;;;20.37;44.04102;101007.1;;;;-83
2022/04/22 09:20:45;;;;;;;;;;;;;;;20.6;43.25195;101002.4;;;;-83
2022/04/22 09:21:11;;;;;;;6.6;3.5;;;;;;;;;;;;;-83
2022/04/22 09:25:45;;;;;;;;;;;;;;;20.83;42.76855;101003.4;;;;-83
2022/04/22 09:30:50;;;;;;;;;;;;;;;21.06;42.04688;100999.9;;;;-83
2022/04/22 09:45:48;;;;;;;;;;;;;;;21.74;40.7334;100981.9;;;;-83
2022/04/22 09:50:52;;;;;;;;;;;;;;;21.86;39.84766;100982.1;;;;-84
2022/04/22 09:51:24;;;;;;;5.2;2.8;;;;;;;;;;;;;-84
2022/04/22 09:55:56;;;;;;;;;;;;;;;21.99;39.5498;100970;;;;-83
2022/04/22 10:00:48;;;;;;;;;;;;;;;22.14;39.6084;100973.7;;;;-83
2022/04/22 10:05:46;;;;;;;;;;;;;;;22.35;38.99414;100968.3;;;;-83
2022/04/22 10:10:45;;;;;;;;;;;;;;;22.6;38.77539;100962.1;;;;-85
2022/04/22 10:15:46;;;;;;;;;;;;;;;22.86;38.29004;100960.8;;;;-81
2022/04/22 10:20:46;;;;;;;;;;;;;;;23.07;37.75391;100955.5;;;;-84
2022/04/22 10:21:15;;;;;;;4.7;2.4;;;;;;;;;;;;;-82
2022/04/22 10:25:45;;;;;;;;;;;;;;;23.24;37.80371;100948.8;;;;-82
2022/04/22 10:30:49;;;;;;;;;;;;;;;23.51;37.56055;100946.8;;;;-83
2022/04/22 10:35:47;;;;;;;;;;;;;;;23.81;36.68555;100937.4;;;;-82
2022/04/22 10:40:51;;;;;;;;;;;;;;;24;36.00781;100934;;;;-82
2022/04/22 10:50:46;;;;;;;;;;;;;;;24.39;35.57617;100927.6;;;;-82
2022/04/22 10:51:17;;;;;;;4.1;1.9;;;;;;;;;;;;;-84
2022/04/22 10:55:45;;;;;;;;;;;;;;;24.63;34.9707;100924.5;;;;-85
2022/04/22 11:00:46;;;;;;;;;;;;;;;24.83;35.08984;100927.4;;;;-82
2022/04/22 11:05:54;;;;;;;;;;;;;;;25.08;34.2168;100927.6;;;;-81
2022/04/22 11:10:56;;;;;;;;;;;;;;;25.19;34.23633;100918.5;;;;-84
2022/04/22 11:15:55;;;;;;;;;;;;;;;25.24;34.47266;100922.8;;;;-87
2022/04/22 11:20:48;;;;;;;;;;;;;;;25.26;34.28906;100911;;;;-84
2022/04/22 11:21:30;;;;;;;3.4;1.8;;;;;;;;;;;;;-83
2022/04/22 11:25:47;;;;;;;;;;;;;;;25.43;33.68652;100910.7;;;;-84
2022/04/22 11:30:46;;;;;;;;;;;;;;;25.56;33.62695;100909.2;;;;-85
2022/04/22 11:35:45;;;;;;;;;;;;;;;25.64;33.26074;100905.9;;;;-83
2022/04/22 11:40:47;;;;;;;;;;;;;;;25.69;32.67285;100897.5;;;;-79
2022/04/22 11:45:46;;;;;;;;;;;;;;;25.79;32.45996;100892.1;;;;-85
2022/04/22 11:50:49;;;;;;;;;;;;;;;25.9;32.6416;100891.7;;;;-84
2022/04/22 11:51:25;;;;;;;2.5;1.7;;;;;;;;;;;;;-83
2022/04/22 11:55:47;;;;;;;;;;;;;;;25.93;32.66699;100883.4;;;;-87
2022/04/22 12:05:45;;;;;;;;;;;;;;;26.12;32.97168;100870;;;;-84
2022/04/22 12:10:47;;;;;;;;;;;;;;;26.24;32.29395;100855;;;;-83
2022/04/22 12:15:48;;;;;;;;;;;;;;;26.37;32.38379;100853.3;;;;-84
2022/04/22 12:20:46;;;;;;;;;;;;;;;26.59;32.30762;100846.3;;;;-84
2022/04/22 12:21:29;;;;;;;2.8;1.7;;;;;;;;;;;;;-82
2022/04/22 12:25:56;;;;;;;;;;;;;;;26.63;31.49512;100842.4;;;;-85
2022/04/22 12:30:47;;;;;;;;;;;;;;;26.65;31.50879;100830.3;;;;-85
2022/04/22 12:35:49;;;;;;;;;;;;;;;26.78;31.7041;100828.7;;;;-83
2022/04/22 12:40:52;;;;;;;;;;;;;;;27;31.31152;100829;;;;-84
2022/04/22 12:55:45;;;;;;;;;;;;;;;27.33;29.70117;100800.7;;;;-84
2022/04/22 13:00:46;;;;;;;;;;;;;;;27.21;29.9043;100794.8;;;;-84
2022/04/22 13:05:45;;;;;;;;;;;;;;;27.16;29.21191;100791.6;;;;-85
2022/04/22 13:10:47;;;;;;;;;;;;;;;27.27;29.09082;100791.9;;;;-83
2022/04/22 13:15:48;;;;;;;;;;;;;;;27.16;29.70117;100802.8;;;;-85
2022/04/22 13:20:55;;;;;;;;;;;;;;;27.02;29.34375;100776.2;;;;-84
2022/04/22 13:21:37;;;;;;;3.4;1.6;;;;;;;;;;;;;-85
2022/04/22 13:25:45;;;;;;;;;;;;;;;27.11;29.40625;100779.5;;;;-84
2022/04/22 13:30:47;;;;;;;;;;;;;;;27.1;29.47656;100766.6;;;;-83
2022/04/22 13:35:46;;;;;;;;;;;;;;;27.18;29.37695;100767.8;;;;-82
2022/04/22 13:40:51;;;;;;;;;;;;;;;27.25;29.59082;100766.2;;;;-84
2022/04/22 13:55:45;;;;;;;;;;;;;;;27.57;29.46094;100746.5;;;;-83
2022/04/22 14:00:48;;;;;;;;;;;;;;;27.51;29.18848;100736.3;;;;-84
2022/04/22 14:05:47;;;;;;;;;;;;;;;27.52;29.7373;100735.6;;;;-86
2022/04/22 14:10:45;;;;;;;;;;;;;;;27.58;29.76465;100737.6;;;;-84
2022/04/22 14:15:45;;;;;;;;;;;;;;;27.53;29.18945;100732;;;;-83
2022/04/22 14:20:46;;;;;;;;;;;;;;;27.53;29.91406;100724.6;;;;-84
2022/04/22 14:21:43;;;;;;;3.4;1.9;;;;;;;;;;;;;-84
2022/04/22 14:25:45;;;;;;;;;;;;;;;27.65;29.69922;100727.2;;;;-84
2022/04/22 14:30:48;;;;;;;;;;;;;;;27.6;29.87109;100717.9;;;;-85
2022/04/22 14:35:45;;;;;;;;;;;;;;;27.46;29.72168;100717.4;;;;-83
2022/04/22 14:40:51;;;;;;;;;;;;;;;27.16;30.13281;100717.1;;;;-84
2022/04/22 14:45:45;;;;;;;;;;;;;;;26.88;30.60352;100715;;;;-83
2022/04/22 14:50:46;;;;;;;;;;;;;;;26.53;31.12695;100714.9;;;;-83
2022/04/22 14:51:48;;;;;;;5.1;2.3;;;;;;;;;;;;;-85
2022/04/22 14:55:45;;;;;;;;;;;;;;;26.15;31.75293;100713.8;;;;-87
2022/04/22 15:00:47;;;;;;;;;;;;;;;25.8;31.8916;100719.8;;;;-83
2022/04/22 15:05:51;;;;;;;;;;;;;;;25.42;32.00293;100715.7;;;;-83
2022/04/22 15:10:45;;;;;;;;;;;;;;;25.16;32.29688;100715.8;;;;-84
2022/04/22 15:15:46;;;;;;;;;;;;;;;24.96;32.39941;100710.8;;;;-84
2022/04/22 15:25:47;;;;;;;;;;;;;;;24.52;32.73828;100704.7;;;;-83
2022/04/22 15:30:56;;;;;;;;;;;;;;;24.25;32.76465;100702.1;;;;-85
2022/04/22 15:35:48;;;;;;;;;;;;;;;23.93;33.01953;100696;;;;-80
2022/04/22 15:40:45;;;;;;;;;;;;;;;23.68;33.15137;100692.6;;;;-82
2022/04/22 15:45:45;;;;;;;;;;;;;;;23.49;33.32129;100687;;;;-83
2022/04/22 15:50:58;;;;;;;;;;;;;;;23.26;33.21191;100683.9;;;;-84
2022/04/22 15:51:55;;;;;;;6.1;3.3;;;;;;;;;;;;;-83
2022/04/22 15:59:58;;;;;;;;;;;;;;;23.07;33.63672;100682.3;;;;-84
2022/04/22 16:04:56;;;;;;;;;;;;;;;22.96;33.74414;100685.9;;;;-84
2022/04/22 16:09:56;;;;;;;;;;;;;;;22.74;33.91211;100684.8;;;;-84
2022/04/22 16:19:57;;;;;;;;;;;;;;;22.44;34.32715;100686.2;;;;-83
2022/04/22 16:22:04;;;;;;;6.9;3.8;;;;;;;;;;;;;-84
2022/04/22 16:25:01;;;;;;;;;;;;;;;22.21;34.44727;100682;;;;-84
2022/04/22 16:29:56;;;;;;;;;;;;;;;22.03;34.69824;100678;;;;-87
2022/04/22 16:35:01;;;;;;;;;;;;;;;21.88;35.00879;100680.2;;;;-84
2022/04/22 16:39:56;;;;;;;;;;;;;;;21.68;35.16602;100683.7;;;;-85
2022/04/22 16:44:58;;;;;;;;;;;;;;;21.45;35.52734;100677.9;;;;-83
2022/04/22 16:49:55;;;;;;;;;;;;;;;21.33;35.82715;100689.6;;;;-82
2022/04/22 16:52:00;;;;;;;6.7;3.8;;;;;;;;;;;;;-85
2022/04/22 16:55:09;;;;;;;;;;;;;;;21.13;36.05273;100690.3;;;;-85
2022/04/22 16:59:57;;;;;;;;;;;;;;;20.98;36.27051;100690;;;;-82
2022/04/22 17:04:59;;;;;;;;;;;;;;;20.86;36.45605;100693.1;;;;-83
2022/04/22 17:09:58;;;;;;;;;;;;;;;20.67;36.71582;100691.7;;;;-85
2022/04/22 17:24:56;;;;;;;;;;;;;;;20.13;37.09473;100698.5;;;;-83
2022/04/22 17:29:56;;;;;;;;;;;;;;;20.01;37.20996;100698.3;;;;-83
2022/04/22 17:34:56;;;;;;;;;;;;;;;19.8;37.51367;100691.5;;;;-82
2022/04/22 17:39:59;;;;;;;;;;;;;;;19.64;37.67188;100690.2;;;;-84
2022/04/22 17:44:56;;;;;;;;;;;;;;;19.5;38.03711;100694.6;;;;-81
2022/04/22 17:49:57;;;;;;;;;;;;;;;19.37;38.16211;100696.8;;;;-83
2022/04/22 17:52:05;;;;;;;5.7;3.7;;;;;;;;;;;;;-84
2022/04/22 17:54:56;;;;;;;;;;;;;;;19.23;38.3457;100707.6;;;;-84
2022/04/22 18:04:55;;;;;;;;;;;;;;;18.91;38.96777;100710.8;;;;-83
2022/04/22 18:10:09;;;;;;;;;;;;;;;18.73;39.33984;100713.6;;;;-84
2022/04/22 18:19:59;;;;;;;;;;;;;;;18.46;39.71582;100718.2;;;;-86
2022/04/22 18:22:14;;;;;;;7.1;3.5;;;;;;;;;;;;;-85
2022/04/22 18:25:13;;;;;;;;;;;;;;;18.36;39.5918;100712.9;;;;-86
2022/04/22 18:29:59;;;;;;;;;;;;;;;18.17;40.25977;100715.2;;;;-85
2022/04/22 18:34:58;;;;;;;;;;;;;;;18.01;40.5293;100714.1;;;;-83
2022/04/22 18:40:02;;;;;;;;;;;;;;;17.86;40.8457;100723.5;;;;-83
2022/04/22 18:44:55;;;;;;;;;;;;;;;17.72;41.10547;100720.8;;;;-82
2022/04/22 18:49:57;;;;;;;;;;;;;;;17.62;40.92676;100722.7;;;;-84
2022/04/22 18:52:08;;;;;;;6.7;3.8;;;;;;;;;;;;;-86
2022/04/22 18:55:05;;;;;;;;;;;;;;;17.5;41.3584;100727.2;;;;-82
2022/04/22 18:59:58;;;;;;;;;;;;;;;17.38;41.31348;100727.1;;;;-85
2022/04/22 19:04:57;;;;;;;;;;;;;;;17.27;41.47266;100740.3;;;;-85
2022/04/22 19:09:58;;;;;;;;;;;;;;;17.11;41.83301;100742.9;;;;-84
2022/04/22 19:14:55;;;;;;;;;;;;;;;16.97;42.11621;100746.1;;;;-86
2022/04/22 19:20:03;;;;;;;;;;;;;;;16.84;42.22852;100748.7;;;;-84
2022/04/22 19:22:09;;;;;;;7.7;4.1;;;;;;;;;;;;;-83
2022/04/22 19:24:59;;;;;;;;;;;;;;;16.74;42.32031;100751.3;;;;-84
2022/04/22 19:29:59;;;;;;;;;;;;;;;16.65;42.28906;100753.8;;;;-84
2022/04/22 19:34:59;;;;;;;;;;;;;;;16.56;42.58691;100754.1;;;;-82
2022/04/22 19:44:57;;;;;;;;;;;;;;;16.41;42.69727;100760.4;;;;-83
2022/04/22 19:50:04;;;;;;;;;;;;;;;16.34;42.78027;100761.7;;;;-84
2022/04/22 19:52:11;;;;;;;7.4;4.3;;;;;;;;;;;;;-85
2022/04/22 19:54:56;;;;;;;;;;;;;;;16.28;42.92285;100760.5;;;;-85
2022/04/22 19:59:57;;;;;;;;;;;;;;;16.21;43.01855;100761.7;;;;-85
2022/04/22 20:04:58;;;;;;;;;;;;;;;16.14;43.27148;100761.6;;;;-85
2022/04/22 20:09:56;;;;;;;;;;;;;;;16.09;43.59473;100761.7;;;;-83
2022/04/22 20:14:56;;;;;;;;;;;;;;;16.02;43.63379;100761.9;;;;-85
2022/04/22 20:19:56;;;;;;;;;;;;;;;15.96;43.8877;100762.4;;;;-85
2022/04/22 20:22:14;;;;;;;7.8;4.2;;;;;;;;;;;;;-84
2022/04/22 20:24:56;;;;;;;;;;;;;;;15.9;44.00586;100761.9;;;;-83
2022/04/22 20:29:58;;;;;;;;;;;;;;;15.86;43.98047;100768.4;;;;-86
2022/04/22 20:44:57;;;;;;;;;;;;;;;15.69;44.86914;100771.4;;;;-84
2022/04/22 20:49:55;;;;;;;;;;;;;;;15.63;45.12305;100772.6;;;;-84
2022/04/22 20:52:15;;;;;;;8.1;4;;;;;;;;;;;;;-82
2022/04/22 20:54:58;;;;;;;;;;;;;;;15.59;45.1748;100776.6;;;;-83
2022/04/22 20:59:56;;;;;;;;;;;;;;;15.52;45.72168;100778;;;;-84
2022/04/22 21:04:56;;;;;;;;;;;;;;;15.46;46.12207;100778.5;;;;-84
2022/04/22 21:09:56;;;;;;;;;;;;;;;15.38;46.18164;100779.5;;;;-84
2022/04/22 21:14:57;;;;;;;;;;;;;;;15.31;46.38867;100784.7;;;;-84
2022/04/22 21:19:59;;;;;;;;;;;;;;;15.24;46.55176;100782.1;;;;-83
2022/04/22 21:22:17;;;;;;;6.5;3.2;;;;;;;;;;;;;-83
2022/04/22 21:24:57;;;;;;;;;;;;;;;15.2;46.44629;100780.6;;;;-83
2022/04/22 21:29:55;;;;;;;;;;;;;;;15.14;46.6084;100780;;;;-85
2022/04/22 21:34:56;;;;;;;;;;;;;;;15.07;46.94043;100789.3;;;;-84
2022/04/22 21:39:58;;;;;;;;;;;;;;;15;47.20313;100787.7;;;;-85
2022/04/22 21:44:57;;;;;;;;;;;;;;;14.94;47.1748;100783.3;;;;-85
2022/04/22 21:49:57;;;;;;;;;;;;;;;14.88;47.25781;100783.9;;;;-85
2022/04/22 21:52:23;;;;;;;5;2.9;;;;;;;;;;;;;-84
2022/04/22 21:54:55;;;;;;;;;;;;;;;14.8;47.4873;100791.4;;;;-84
2022/04/22 21:59:58;;;;;;;;;;;;;;;14.73;47.72754;100787;;;;-86
2022/04/22 22:04:55;;;;;;;;;;;;;;;14.66;47.87793;100786.1;;;;-84
2022/04/22 22:09:55;;;;;;;;;;;;;;;14.59;48.11816;100785.8;;;;-85
2022/04/22 22:14:57;;;;;;;;;;;;;;;14.56;48.26074;100785.6;;;;-85
2022/04/22 22:19:56;;;;;;;;;;;;;;;14.45;48.55273;100796.7;;;;-82
2022/04/22 22:22:18;;;;;;;6.5;2.8;;;;;;;;;;;;;-84
2022/04/22 22:25:01;;;;;;;;;;;;;;;14.35;48.76758;100790.1;;;;-85
2022/04/22 22:29:57;;;;;;;;;;;;;;;14.26;48.91504;100800.8;;;;-84
2022/04/22 22:34:56;;;;;;;;;;;;;;;14.15;48.9707;100796.8;;;;-83
2022/04/22 22:39:57;;;;;;;;;;;;;;;14.03;49.58789;100796;;;;-84
2022/04/22 22:45:01;;;;;;;;;;;;;;;13.93;49.59766;100795.2;;;;-85
2022/04/22 22:49:55;;;;;;;;;;;;;;;13.83;49.95898;100796.5;;;;-84
2022/04/22 22:52:21;;;;;;;5.1;2.9;;;;;;;;;;;;;-83
2022/04/22 22:55:01;;;;;;;;;;;;;;;13.72;50.23828;100798.5;;;;-83
2022/04/22 22:59:56;;;;;;;;;;;;;;;13.65;50.37695;100799.6;;;;-85
2022/04/22 23:04:57;;;;;;;;;;;;;;;13.56;50.45605;100799.4;;;;-84
2022/04/22 23:09:57;;;;;;;;;;;;;;;13.45;50.69141;100801.2;;;;-85
2022/04/22 23:15:04;;;;;;;;;;;;;;;13.39;50.91992;100790.2;;;;-83
2022/04/22 23:19:56;;;;;;;;;;;;;;;13.31;51.33789;100791.7;;;;-83
2022/04/22 23:22:21;;;;;;;4.3;2.7;;;;;;;;;;;;;-83
2022/04/22 23:24:56;;;;;;;;;;;;;;;13.23;51.53027;100786.7;;;;-82
2022/04/22 23:29:58;;;;;;;;;;;;;;;13.17;51.625;100788.1;;;;-83
2022/04/22 23:34:56;;;;;;;;;;;;;;;13.06;52.18262;100785.9;;;;-84
2022/04/22 23:39:55;;;;;;;;;;;;;;;13;52.41211;100783.4;;;;-85
2022/04/22 23:44:56;;;;;;;;;;;;;;;12.96;52.51855;100782.1;;;;-82
2022/04/22 23:49:56;;;;;;;;;;;;;;;12.89;52.74707;100776.5;;;;-85
2022/04/22 23:52:22;;;;;;;6.3;3.3;;;;;;;;;;;;;-84
2022/04/22 23:54:56;;;;;;;;;;;;;;;12.81;52.68164;100770.7;;;;-84
2022/04/22 23:59:55;;;;;;;;;;;;;;;12.76;52.97852;100776.8;;;;-83
